CGT weather

CLOSED Chinguetti Airport
Chinguetti, Adrar Region, Mauritania

Public forecast

Using degrees Celsius for public forecast. Weather courtesy of forecast.io.

Closest aviation weather report (METAR) to Chinguetti Airport

Report is more than 6 hours old.

Closest report is Atar International Airport, 36.3 nm (67.2 km) W. Retrieved 2020/04/02 09:00 UTC (23 hours ago):

GQPA 020900Z 25010KT CAVOK 28/08 Q1017

Closest aviation forecast (TAF) to Chinguetti Airport

Closest forecast is Nouakchott–Oumtounsy International Airport, 241.4 nm (447.1 km) WSW. Retrieved 2020/04/03 06:00 UTC (2 hours ago):

TAF GQNO 030500Z 0306/0412 34012KT 8000 NSC